Terminal Aerodrome Forecast
Issued by NWS St Louis, MO

Home | Current Version | Previous Version | Graphics & Text | Print | Product List | Glossary On
Versions: 1 2 3 4 5 6 7 8 9 10 11 12 13 14 15 16 17 18 19 20 21 22
000
FTUS43 KLSX 050520
TAFCOU
TAF
KCOU 050520Z 0506/0606 13004KT P6SM SCT250
     FM051000 VRB03KT 5SM BR SCT250
     FM051300 16007KT P6SM SCT250=

USA.gov is the U.S. government's official web portal to all federal, state and local government web resources and services.